首页
METAR-TAF:

METAR-TAF

机场 :

馬拉博, 赤道几内亚

馬拉博機場

纬度: 03-45-18N, 经度: 08-42-31E, 海拔: 23米

当前天气观测

该预报发布于1小时和54分钟前的05:00 UTC
风速5节,风向西转西南
温度 25°C
湿度 89%
气压 1011 hPa
能见度10公里或以上
少量云层高于1200英尺
少量云层高于2000英尺, 积雨云.
雷暴

METAR: FGSL 250500Z 24005KT 9999 TS FEW012 FEW020CB 25/23 Q1011 NOSIG

时间: 07:54 (06:54 UTC)

预报

该预报发布于1小时和54分钟前的05:00 UTC
预报有效从25日的 06点(UTC)到 25日的 12点(UTC)
风速8节,风向西转西南
能见度10公里或以上
散云层高于1200英尺
少量云层高于1800英尺, 积雨云.
雷暴
成为
从 25日的 10点(UTC)到 25日的 12点(UTC)
短暂存在
从 25日的 14点(UTC)到 25日的 20点(UTC)
多云层高于1000英尺
少量云层高于1800英尺, 积雨云.
雷暴

TAF: FGSL 250500Z 2506/2512 24008KT 9999 TS SCT012 FEW018CB BECMG 2510/2512 NSW TEMPO 2514/2520 TS BKN010 FEW018CB

超过4000个机场的气象观测和天气预报(METAR&TAF报告)。

可查询的气象台以黄色和红色小点在地图上表示。

将鼠标移到小点上方,可查看气象台名称。

然后点击查看天气观测和预报。

如需切换地图:点击带黑十字的绿色按钮放大地图;点击带横线的绿色按钮缩小地图;或者点击绿色箭头查看邻近地区的地图。


METAR-TAF: